createdAt,value
2023-04-05T00:00:31.248Z,968.45
2023-04-05T00:06:02.905Z,968.06
2023-04-05T00:11:39.232Z,968.23
2023-04-05T00:17:13.393Z,968.3
2023-04-05T00:22:42.567Z,968.14
2023-04-05T00:28:14.392Z,968.08
2023-04-05T00:33:46.038Z,968.31
2023-04-05T00:39:18.026Z,968.24
2023-04-05T00:44:49.347Z,967.86
2023-04-05T00:50:20.994Z,967.98
2023-04-05T00:55:53.120Z,967.88
2023-04-05T01:01:24.795Z,967.74
2023-04-05T01:06:56.060Z,967.58
2023-04-05T01:12:34.448Z,967.53
2023-04-05T01:18:06.187Z,967.76
2023-04-05T01:23:38.180Z,967.61
2023-04-05T01:29:09.227Z,967.65
2023-04-05T01:34:40.969Z,967.7
2023-04-05T01:40:13.072Z,967.69
2023-04-05T01:45:44.766Z,967.74
2023-04-05T01:51:16.375Z,967.51
2023-04-05T01:56:48.295Z,967.36
2023-04-05T02:02:19.722Z,967.33
2023-04-05T02:07:51.400Z,967.37
2023-04-05T02:13:27.619Z,966.65
2023-04-05T02:18:59.168Z,966.99
2023-04-05T02:24:31.001Z,966.89
2023-04-05T02:30:02.929Z,967.24
2023-04-05T02:35:34.662Z,967.39
2023-04-05T02:41:06.298Z,967.16
2023-04-05T02:46:38.093Z,966.93
2023-04-05T02:52:09.546Z,966.44
2023-04-05T02:57:41.355Z,966.3
2023-04-05T03:03:13.375Z,966.21
2023-04-05T03:08:44.781Z,966.26
2023-04-05T03:14:22.873Z,966.22
2023-04-05T03:19:54.754Z,965.94
2023-04-05T03:25:26.888Z,965.98
2023-04-05T03:30:58.121Z,965.98
2023-04-05T03:36:29.692Z,965.95
2023-04-05T03:42:01.763Z,965.52
2023-04-05T03:47:33.375Z,965.7
2023-04-05T03:53:04.961Z,965.74
2023-04-05T03:58:36.759Z,965.72
2023-04-05T04:04:09.131Z,965.39
2023-04-05T04:09:40.054Z,965.4
2023-04-05T04:15:16.455Z,965.16
2023-04-05T04:20:48.181Z,965.21
2023-04-05T04:26:19.722Z,965.16
2023-04-05T04:31:51.767Z,965.29
2023-04-05T04:37:23.589Z,964.65
2023-04-05T04:42:55.115Z,964.97
2023-04-05T04:48:26.587Z,965.02
2023-04-05T04:53:58.296Z,964.99
2023-04-05T04:59:30.698Z,964.97
2023-04-05T05:05:01.766Z,965.49
2023-04-05T05:10:33.713Z,965.65
2023-04-05T05:16:09.740Z,966.02
2023-04-05T05:21:41.512Z,966.05
2023-04-05T05:27:13.162Z,966.13
2023-04-05T05:32:45.034Z,966.16
2023-04-05T05:38:16.476Z,966.34
2023-04-05T05:43:48.218Z,966.36
2023-04-05T05:49:20.119Z,966.6
2023-04-05T05:54:51.785Z,966.93
2023-04-05T06:00:23.603Z,967.55
2023-04-05T06:05:55.281Z,967.89
2023-04-05T06:11:27.520Z,968.68
2023-04-05T06:17:03.057Z,969.22
2023-04-05T06:22:35.699Z,970.03
2023-04-05T06:28:06.401Z,970.83
2023-04-05T06:33:38.416Z,971.27
2023-04-05T06:39:09.967Z,971.31
2023-04-05T06:44:41.842Z,971.66
2023-04-05T06:50:13.365Z,971.89
2023-04-05T06:55:45.096Z,972.49
2023-04-05T07:01:17.946Z,973.24
2023-04-05T07:06:48.935Z,973.6
2023-04-05T07:12:20.252Z,974.56
2023-04-05T07:17:56.602Z,974.84
2023-04-05T07:23:28.319Z,974.85
2023-04-05T07:28:59.764Z,975.47
2023-04-05T07:34:31.458Z,975.51
2023-04-05T07:40:03.626Z,975.96
2023-04-05T07:45:34.890Z,974.15
2023-04-05T07:51:06.968Z,976.26
2023-04-05T07:56:38.647Z,976.58
2023-04-05T08:02:15.799Z,976.56
2023-04-05T08:07:42.132Z,976.14
2023-04-05T08:13:13.640Z,977.23
2023-04-05T08:18:49.889Z,977.89
2023-04-05T08:24:21.891Z,978.28
2023-04-05T08:29:53.276Z,976.79
2023-04-05T08:35:25.039Z,978.1
2023-04-05T08:40:56.558Z,977.82
2023-04-05T08:46:28.893Z,977.7
2023-04-05T08:52:00.087Z,977.91
2023-04-05T08:57:32.025Z,978.76
2023-04-05T09:03:04.223Z,978.42
2023-04-05T09:08:35.510Z,979.15
2023-04-05T09:14:06.916Z,978.72
2023-04-05T09:19:42.994Z,979.58
2023-04-05T09:25:14.910Z,978.85
2023-04-05T09:30:46.949Z,978.4
2023-04-05T09:36:18.258Z,977.5
2023-04-05T09:41:50.045Z,978.59
2023-04-05T09:47:21.740Z,977.87
2023-04-05T09:52:53.563Z,977.09
2023-04-05T09:58:25.223Z,978.57
2023-04-05T10:03:57.340Z,979.49
2023-04-05T10:09:29.165Z,979.59
2023-04-05T10:15:00.382Z,979.6
2023-04-05T10:20:38.436Z,980.59
2023-04-05T10:26:10.147Z,979.35
2023-04-05T10:31:42.072Z,977.73
2023-04-05T10:37:13.950Z,978.29
2023-04-05T10:42:45.396Z,977.77
2023-04-05T10:48:17.494Z,978.17
2023-04-05T10:53:51.188Z,980.28
2023-04-05T10:59:20.660Z,980.1
2023-04-05T11:04:52.312Z,980.01
2023-04-05T11:10:23.756Z,979.67
2023-04-05T11:15:55.761Z,979.8
2023-04-05T11:21:31.763Z,977.45
2023-04-05T11:27:03.442Z,976.87
2023-04-05T11:32:35.461Z,979.89
2023-04-05T11:38:07.519Z,978.32
2023-04-05T11:43:38.718Z,977.67
2023-04-05T11:49:10.554Z,978.4
2023-04-05T11:54:42.367Z,977.87
2023-04-05T12:00:13.733Z,980.05
2023-04-05T12:05:46.312Z,979.53
2023-04-05T12:11:17.554Z,979.39
2023-04-05T12:16:49.331Z,978.15
2023-04-05T12:22:27.266Z,977.77
2023-04-05T12:27:59.585Z,977.05
2023-04-05T12:33:30.576Z,974.69
2023-04-05T12:39:03.159Z,977.1
2023-04-05T12:44:34.339Z,977.55
2023-04-05T12:50:05.804Z,977.75
2023-04-05T12:55:38.116Z,976.5
2023-04-05T13:01:09.555Z,978.04
2023-04-05T13:06:41.103Z,977.29
2023-04-05T13:12:12.713Z,975.81
2023-04-05T13:17:45.410Z,976.89
2023-04-05T13:23:20.787Z,976.01
2023-04-05T13:28:52.133Z,977.36
2023-04-05T13:34:24.944Z,976.2
2023-04-05T13:39:55.972Z,976.53
2023-04-05T13:45:27.695Z,976.78
2023-04-05T13:50:59.331Z,976.56
2023-04-05T13:56:30.767Z,974.93
2023-04-05T14:02:02.791Z,976.46
2023-04-05T14:07:34.100Z,974.57
2023-04-05T14:13:05.997Z,975.72
2023-04-05T14:18:37.681Z,974.44
2023-04-05T14:24:13.859Z,976.38
2023-04-05T14:29:45.625Z,974.54
2023-04-05T14:35:17.319Z,974.11
2023-04-05T14:40:48.998Z,975.97
2023-04-05T14:46:21.140Z,975.59
2023-04-05T14:51:52.460Z,976.03
2023-04-05T14:57:24.364Z,976.32
2023-04-05T15:02:56.393Z,975.58
2023-04-05T15:08:27.736Z,974.79
2023-04-05T15:13:59.444Z,975.52
2023-04-05T15:19:32.128Z,975.28
2023-04-05T15:25:09.303Z,973.99
2023-04-05T15:30:41.566Z,974.89
2023-04-05T15:36:13.050Z,976.29
2023-04-05T15:41:44.580Z,976.0
2023-04-05T15:47:16.323Z,975.28
2023-04-05T15:52:48.088Z,972.96
2023-04-05T15:58:19.368Z,974.03
2023-04-05T16:03:51.703Z,974.35
2023-04-05T16:09:23.490Z,973.93
2023-04-05T16:14:54.658Z,972.86
2023-04-05T16:20:26.649Z,973.36
2023-04-05T16:26:03.089Z,973.92
2023-04-05T16:31:35.056Z,973.29
2023-04-05T16:37:05.954Z,974.45
2023-04-05T16:42:37.857Z,973.97
2023-04-05T16:48:09.517Z,973.65
2023-04-05T16:53:42.005Z,973.23
2023-04-05T16:59:13.268Z,973.91
2023-04-05T17:04:44.817Z,973.67
2023-04-05T17:10:16.603Z,973.24
2023-04-05T17:15:48.215Z,972.95
2023-04-05T17:21:20.191Z,972.3
2023-04-05T17:26:58.058Z,971.86
2023-04-05T17:32:30.062Z,971.65
2023-04-05T17:38:01.470Z,971.16
2023-04-05T17:43:33.086Z,970.93
2023-04-05T17:49:06.029Z,970.4
2023-04-05T17:54:36.526Z,970.01
2023-04-05T18:00:08.417Z,969.51
2023-04-05T18:05:39.960Z,969.28
2023-04-05T18:11:11.752Z,968.98
2023-04-05T18:16:43.414Z,968.75
2023-04-05T18:22:14.957Z,968.58
2023-04-05T18:27:53.191Z,968.4
2023-04-05T18:33:25.296Z,968.25
2023-04-05T18:38:56.683Z,968.09
2023-04-05T18:44:28.493Z,968.07
2023-04-05T18:50:00.270Z,968.05
2023-04-05T18:55:31.847Z,968.04
2023-04-05T19:01:03.567Z,967.91
2023-04-05T19:06:35.421Z,967.91
2023-04-05T19:12:06.872Z,967.91
2023-04-05T19:17:38.910Z,967.73
2023-04-05T19:23:10.638Z,967.7
2023-04-05T19:28:48.713Z,967.62
2023-04-05T19:34:20.349Z,967.53
2023-04-05T19:39:52.432Z,967.43
2023-04-05T19:45:23.982Z,967.44
2023-04-05T19:50:58.286Z,967.11
2023-04-05T19:56:27.272Z,967.17
2023-04-05T20:01:59.439Z,967.13
2023-04-05T20:07:31.142Z,967.16
2023-04-05T20:13:02.677Z,967.12
2023-04-05T20:18:34.517Z,967.19
2023-04-05T20:24:06.394Z,967.19
2023-04-05T20:29:42.544Z,966.97
2023-04-05T20:35:13.806Z,966.95
2023-04-05T20:40:46.423Z,966.98
2023-04-05T20:46:17.622Z,966.74
2023-04-05T20:51:48.923Z,966.73
2023-04-05T20:57:20.687Z,966.75
2023-04-05T21:02:53.040Z,966.6
2023-04-05T21:08:24.204Z,966.73
2023-04-05T21:13:56.025Z,966.63
2023-04-05T21:19:27.691Z,966.44
2023-04-05T21:24:59.420Z,966.37
2023-04-05T21:30:36.487Z,966.47
2023-04-05T21:36:07.780Z,966.36
2023-04-05T21:41:39.224Z,966.21
2023-04-05T21:47:10.487Z,966.14
2023-04-05T21:52:43.315Z,965.69
2023-04-05T21:58:14.010Z,966.2
2023-04-05T22:03:46.012Z,966.09
2023-04-05T22:09:17.721Z,966.05
2023-04-05T22:14:49.211Z,966.03
2023-04-05T22:20:21.009Z,966.01
2023-04-05T22:25:53.053Z,965.64
2023-04-05T22:31:29.178Z,965.67
2023-04-05T22:37:00.867Z,965.61
2023-04-05T22:42:32.747Z,965.37
2023-04-05T22:48:04.295Z,965.49
2023-04-05T22:53:35.799Z,965.37
2023-04-05T22:59:09.071Z,965.3
2023-04-05T23:04:39.403Z,965.12
2023-04-05T23:10:11.164Z,965.09
2023-04-05T23:15:42.926Z,965.17
2023-04-05T23:21:14.367Z,965.07
2023-04-05T23:26:45.918Z,964.84
2023-04-05T23:32:22.192Z,964.68
2023-04-05T23:37:53.965Z,964.77
2023-04-05T23:43:25.853Z,964.63
2023-04-05T23:48:57.788Z,964.8
2023-04-05T23:54:29.370Z,964.87
